createdAt,value
2022-08-16T00:00:48.379Z,26.10
2022-08-16T00:03:41.525Z,26.00
2022-08-16T00:06:30.238Z,26.00
2022-08-16T00:09:18.235Z,26.00
2022-08-16T00:12:07.292Z,26.00
2022-08-16T00:14:56.487Z,26.00
2022-08-16T00:17:56.484Z,26.00
2022-08-16T00:20:49.182Z,25.90
2022-08-16T00:23:40.340Z,25.90
2022-08-16T00:26:37.410Z,25.90
2022-08-16T00:29:33.283Z,25.90
2022-08-16T00:32:22.759Z,25.90
2022-08-16T00:35:16.045Z,25.80
2022-08-16T00:38:41.431Z,25.80
2022-08-16T00:41:17.194Z,25.80
2022-08-16T00:44:11.158Z,25.80
2022-08-16T00:47:06.727Z,25.70
2022-08-16T00:49:57.142Z,25.70
2022-08-16T00:52:50.666Z,25.70
2022-08-16T00:55:47.124Z,25.60
2022-08-16T00:58:40.531Z,25.60
2022-08-16T01:01:32.785Z,25.60
2022-08-16T01:04:30.215Z,25.60
2022-08-16T01:07:19.034Z,25.50
2022-08-16T01:10:16.190Z,25.50
2022-08-16T01:13:12.489Z,25.50
2022-08-16T01:16:10.115Z,25.50
2022-08-16T01:19:03.202Z,25.50
2022-08-16T01:21:58.230Z,25.40
2022-08-16T01:25:11.556Z,25.40
2022-08-16T01:28:02.885Z,25.40
2022-08-16T01:30:55.826Z,25.30
2022-08-16T01:33:44.853Z,25.30
2022-08-16T01:36:38.909Z,25.30
2022-08-16T01:39:27.071Z,25.20
2022-08-16T01:42:17.893Z,25.20
2022-08-16T01:45:09.631Z,25.20
2022-08-16T01:47:57.643Z,25.20
2022-08-16T01:51:09.450Z,25.20
2022-08-16T01:53:56.722Z,25.20
2022-08-16T01:56:48.186Z,25.10
2022-08-16T01:59:41.333Z,25.10
2022-08-16T02:02:33.970Z,25.10
2022-08-16T02:05:31.021Z,25.10
2022-08-16T02:08:33.835Z,25.00
2022-08-16T02:11:23.773Z,25.00
2022-08-16T02:14:18.535Z,25.00
2022-08-16T02:17:13.487Z,25.00
2022-08-16T02:20:11.567Z,25.00
2022-08-16T02:23:05.779Z,25.00
2022-08-16T02:25:54.785Z,24.90
2022-08-16T02:28:45.326Z,24.90
2022-08-16T02:32:02.832Z,24.90
2022-08-16T02:34:45.582Z,24.80
2022-08-16T02:37:51.267Z,24.80
2022-08-16T02:40:42.917Z,24.70
2022-08-16T02:43:34.409Z,24.70
2022-08-16T02:46:30.207Z,24.70
2022-08-16T02:49:57.979Z,24.70
2022-08-16T02:52:33.399Z,24.70
2022-08-16T02:55:40.934Z,24.60
2022-08-16T02:58:33.500Z,24.60
2022-08-16T03:01:36.836Z,24.60
2022-08-16T03:04:51.079Z,24.60
2022-08-16T03:07:50.964Z,24.60
2022-08-16T03:10:39.871Z,24.60
2022-08-16T03:13:28.279Z,24.50
2022-08-16T03:16:37.939Z,24.50
2022-08-16T03:19:48.007Z,24.50
2022-08-16T03:22:36.759Z,24.50
2022-08-16T03:25:41.038Z,24.40
2022-08-16T03:28:33.369Z,24.40
2022-08-16T03:31:22.392Z,24.40
2022-08-16T03:34:10.538Z,24.40
2022-08-16T03:37:02.949Z,24.40
2022-08-16T03:39:56.898Z,24.40
2022-08-16T03:43:18.795Z,24.40
2022-08-16T03:46:02.000Z,24.40
2022-08-16T03:48:55.780Z,24.40
2022-08-16T03:51:45.344Z,24.30
2022-08-16T03:54:57.418Z,24.30
2022-08-16T03:57:52.241Z,24.30
2022-08-16T04:00:43.514Z,24.30
2022-08-16T04:03:36.737Z,24.30
2022-08-16T04:06:25.130Z,24.30
2022-08-16T04:09:15.825Z,24.30
2022-08-16T04:12:10.451Z,24.20
2022-08-16T04:15:03.576Z,24.20
2022-08-16T04:18:02.101Z,24.20
2022-08-16T04:20:51.276Z,24.20
2022-08-16T04:23:43.051Z,24.10
2022-08-16T04:26:32.329Z,24.10
2022-08-16T04:29:23.498Z,24.10
2022-08-16T04:32:13.947Z,24.10
2022-08-16T04:35:13.677Z,24.10
2022-08-16T04:38:11.090Z,24.10
2022-08-16T04:41:12.041Z,24.10
2022-08-16T04:44:01.098Z,24.10
2022-08-16T04:47:01.186Z,24.10
2022-08-16T04:49:52.698Z,24.00
2022-08-16T04:52:42.862Z,24.00
2022-08-16T04:55:38.003Z,24.00
2022-08-16T04:58:45.296Z,24.00
2022-08-16T05:01:58.992Z,24.00
2022-08-16T05:04:44.380Z,24.00
2022-08-16T05:07:32.536Z,24.00
2022-08-16T05:10:26.043Z,24.00
2022-08-16T05:13:15.712Z,24.00
2022-08-16T05:16:04.632Z,24.00
2022-08-16T05:18:58.394Z,24.00
2022-08-16T05:21:47.992Z,24.00
2022-08-16T05:24:40.533Z,23.90
2022-08-16T05:27:33.406Z,23.80
2022-08-16T05:30:35.224Z,23.80
2022-08-16T05:33:29.605Z,23.70
2022-08-16T05:36:20.892Z,23.60
2022-08-16T05:39:11.502Z,23.60
2022-08-16T05:41:59.817Z,23.50
2022-08-16T05:44:49.315Z,23.40
2022-08-16T05:47:43.191Z,23.40
2022-08-16T05:50:36.226Z,23.40
2022-08-16T05:53:26.444Z,23.30
2022-08-16T05:56:37.507Z,23.30
2022-08-16T05:59:27.441Z,23.30
2022-08-16T06:02:19.540Z,23.30
2022-08-16T06:05:10.855Z,23.20
2022-08-16T06:08:01.859Z,23.20
2022-08-16T06:11:09.652Z,23.20
2022-08-16T06:14:02.583Z,23.20
2022-08-16T06:17:09.656Z,23.20
2022-08-16T06:20:06.605Z,23.20
2022-08-16T06:22:58.781Z,23.20
2022-08-16T06:26:10.997Z,23.20
2022-08-16T06:29:08.116Z,23.20
2022-08-16T06:32:00.463Z,23.20
2022-08-16T06:34:57.328Z,23.20
2022-08-16T06:37:57.138Z,23.20
2022-08-16T06:41:05.015Z,23.30
2022-08-16T06:43:55.703Z,23.30
2022-08-16T06:46:50.881Z,23.30
2022-08-16T06:49:44.197Z,23.30
2022-08-16T06:53:00.505Z,23.30
2022-08-16T06:55:53.742Z,23.30
2022-08-16T06:58:45.031Z,23.30
2022-08-16T07:01:43.129Z,23.40
2022-08-16T07:04:59.123Z,23.40
2022-08-16T07:08:17.989Z,23.50
2022-08-16T07:11:12.654Z,23.50
2022-08-16T07:14:23.877Z,23.60
2022-08-16T07:17:12.891Z,23.60
2022-08-16T07:20:30.275Z,23.60
2022-08-16T07:23:37.036Z,23.70
2022-08-16T07:26:29.415Z,23.80
2022-08-16T07:29:19.373Z,23.80
2022-08-16T07:32:11.576Z,23.90
2022-08-16T07:35:01.008Z,23.90
2022-08-16T07:37:53.222Z,24.00
2022-08-16T07:41:01.471Z,24.00
2022-08-16T07:43:53.743Z,24.00
2022-08-16T07:47:11.247Z,24.10
2022-08-16T07:50:07.710Z,24.10
2022-08-16T07:52:56.364Z,24.20
2022-08-16T07:55:49.120Z,24.20
2022-08-16T07:58:45.189Z,24.30
2022-08-16T08:01:38.595Z,24.30
2022-08-16T08:04:32.469Z,24.30
2022-08-16T08:07:22.974Z,24.40
2022-08-16T08:10:29.409Z,24.50
2022-08-16T08:13:20.279Z,24.50
2022-08-16T08:16:30.742Z,24.60
2022-08-16T08:19:23.658Z,24.70
2022-08-16T08:22:16.292Z,24.80
2022-08-16T08:25:16.199Z,24.90
2022-08-16T08:28:06.333Z,24.90
2022-08-16T08:31:03.750Z,25.00
2022-08-16T08:33:56.893Z,25.10
2022-08-16T08:36:54.396Z,25.20
2022-08-16T08:39:58.191Z,25.30
2022-08-16T08:42:48.101Z,25.40
2022-08-16T08:45:48.428Z,25.50
2022-08-16T08:48:37.706Z,25.60
2022-08-16T08:51:35.524Z,25.60
2022-08-16T08:54:26.408Z,25.70
2022-08-16T08:57:18.715Z,25.80
2022-08-16T09:00:51.259Z,25.80
2022-08-16T09:03:41.515Z,25.90
2022-08-16T09:06:31.671Z,26.00
2022-08-16T09:09:21.522Z,26.10
2022-08-16T09:12:31.230Z,26.20
2022-08-16T09:15:32.538Z,26.30
2022-08-16T09:18:26.778Z,26.40
2022-08-16T09:21:31.342Z,26.50
2022-08-16T09:24:51.474Z,26.60
2022-08-16T09:27:29.975Z,26.70
2022-08-16T09:30:43.940Z,26.80
2022-08-16T09:33:37.202Z,26.90
2022-08-16T09:36:31.800Z,27.00
2022-08-16T09:39:21.797Z,27.20
2022-08-16T09:42:10.567Z,27.20
2022-08-16T09:45:11.822Z,27.30
2022-08-16T09:48:06.815Z,27.40
2022-08-16T09:50:56.116Z,27.50
2022-08-16T09:53:44.035Z,27.60
2022-08-16T09:56:52.273Z,27.70
2022-08-16T09:59:42.093Z,27.80
2022-08-16T10:02:32.137Z,27.90
2022-08-16T10:05:21.439Z,27.90
2022-08-16T10:08:26.399Z,28.00
2022-08-16T10:11:32.372Z,28.10
2022-08-16T10:14:37.981Z,28.10
2022-08-16T10:17:26.452Z,28.20
2022-08-16T10:20:18.726Z,28.30
2022-08-16T10:23:09.825Z,28.30
2022-08-16T10:27:00.650Z,28.30
2022-08-16T10:29:13.254Z,28.40
2022-08-16T10:32:08.598Z,28.40
2022-08-16T10:34:56.693Z,28.40
2022-08-16T10:37:46.412Z,28.50
2022-08-16T10:40:34.487Z,28.50
2022-08-16T10:43:23.627Z,28.60
2022-08-16T10:46:39.783Z,28.60
2022-08-16T10:49:22.077Z,28.60
2022-08-16T10:52:18.951Z,28.70
2022-08-16T10:58:20.760Z,28.80
2022-08-16T11:01:43.829Z,28.80
2022-08-16T11:07:43.789Z,28.90
2022-08-16T11:14:10.943Z,29.00
2022-08-16T11:17:10.798Z,29.00
2022-08-16T11:20:01.158Z,29.10
2022-08-16T11:23:07.455Z,29.10
2022-08-16T11:26:16.235Z,29.20
2022-08-16T11:29:15.257Z,29.10
2022-08-16T11:32:05.480Z,29.20
2022-08-16T11:35:11.222Z,29.20
2022-08-16T11:38:46.725Z,29.20
2022-08-16T11:41:15.742Z,29.20
2022-08-16T11:44:03.778Z,29.20
2022-08-16T11:46:51.684Z,29.20
2022-08-16T11:49:41.445Z,29.30
2022-08-16T11:52:28.901Z,29.30
2022-08-16T11:55:17.881Z,29.30
2022-08-16T11:58:10.882Z,29.40
2022-08-16T12:00:59.559Z,29.40
2022-08-16T12:03:47.498Z,29.40
2022-08-16T12:06:34.782Z,29.50
2022-08-16T12:09:24.764Z,29.50
2022-08-16T12:12:12.376Z,29.60
2022-08-16T12:15:01.131Z,29.60
2022-08-16T12:17:49.706Z,29.60
2022-08-16T12:20:42.086Z,29.60
2022-08-16T12:23:33.300Z,29.70
2022-08-16T12:26:23.448Z,29.70
2022-08-16T12:29:12.381Z,29.70
2022-08-16T12:32:27.015Z,29.70
2022-08-16T12:35:14.717Z,29.70
2022-08-16T12:38:38.063Z,29.70
2022-08-16T12:41:13.592Z,29.70
2022-08-16T12:44:11.802Z,29.70
2022-08-16T12:47:26.635Z,29.70
2022-08-16T12:50:15.721Z,29.70
2022-08-16T12:53:03.817Z,29.70
2022-08-16T12:55:52.920Z,29.70
2022-08-16T12:58:48.661Z,29.70
2022-08-16T13:01:41.743Z,29.70
2022-08-16T13:04:34.047Z,29.70
2022-08-16T13:07:27.190Z,29.80
2022-08-16T13:10:21.538Z,29.80
2022-08-16T13:13:27.323Z,29.80
2022-08-16T13:16:20.702Z,29.80
2022-08-16T13:19:12.274Z,29.80
2022-08-16T13:22:01.024Z,29.80
2022-08-16T13:24:51.278Z,29.90
2022-08-16T13:28:02.019Z,29.90
2022-08-16T13:30:51.647Z,29.90
2022-08-16T13:33:39.055Z,29.90
2022-08-16T13:36:47.847Z,30.00
2022-08-16T13:39:36.691Z,29.90
2022-08-16T13:42:27.982Z,29.90
2022-08-16T13:45:17.342Z,30.00
2022-08-16T13:48:07.048Z,30.00
2022-08-16T13:50:57.442Z,30.00
2022-08-16T13:53:59.757Z,30.00
2022-08-16T13:56:52.152Z,30.00
2022-08-16T13:59:43.493Z,30.10
2022-08-16T14:02:33.083Z,30.00
2022-08-16T14:05:22.051Z,30.10
2022-08-16T14:08:09.931Z,30.00
2022-08-16T14:10:57.448Z,30.00
2022-08-16T14:13:47.669Z,30.00
2022-08-16T14:16:35.608Z,30.00
2022-08-16T14:19:23.354Z,30.00
2022-08-16T14:22:30.753Z,30.00
2022-08-16T14:25:22.805Z,30.00
2022-08-16T14:28:10.449Z,30.00
2022-08-16T14:31:01.750Z,30.00
2022-08-16T14:33:51.101Z,30.00
2022-08-16T14:36:40.874Z,30.00
2022-08-16T14:39:30.019Z,30.00
2022-08-16T14:42:21.441Z,30.00
2022-08-16T14:45:11.637Z,30.10
2022-08-16T14:48:02.859Z,30.10
2022-08-16T14:50:52.033Z,30.10
2022-08-16T14:53:45.136Z,30.10
2022-08-16T14:56:42.599Z,30.10
2022-08-16T14:59:30.799Z,30.10
2022-08-16T15:02:34.366Z,30.10
2022-08-16T15:05:27.256Z,30.10
2022-08-16T15:08:17.790Z,30.10
2022-08-16T15:11:08.088Z,30.10
2022-08-16T15:13:55.813Z,30.10
2022-08-16T15:16:43.401Z,30.10
2022-08-16T15:19:33.904Z,30.10
2022-08-16T15:22:30.347Z,30.20
2022-08-16T15:25:21.825Z,30.20
2022-08-16T15:28:31.279Z,30.20
2022-08-16T15:31:20.039Z,30.20
2022-08-16T15:34:07.643Z,30.20
2022-08-16T15:37:00.658Z,30.20
2022-08-16T15:39:55.966Z,30.20
2022-08-16T15:42:54.108Z,30.20
2022-08-16T15:45:59.169Z,30.20
2022-08-16T15:48:46.373Z,30.20
2022-08-16T15:51:33.848Z,30.20
2022-08-16T15:54:31.083Z,30.20
2022-08-16T15:57:22.801Z,30.20
2022-08-16T16:00:14.584Z,30.10
2022-08-16T16:03:08.593Z,30.20
2022-08-16T16:06:00.863Z,30.10
2022-08-16T16:08:49.090Z,30.10
2022-08-16T16:11:39.029Z,30.10
2022-08-16T16:14:30.032Z,30.10
2022-08-16T16:17:18.791Z,30.10
2022-08-16T16:20:08.161Z,30.10
2022-08-16T16:23:11.105Z,30.10
2022-08-16T16:26:00.348Z,30.10
2022-08-16T16:29:07.489Z,30.10
2022-08-16T16:32:05.790Z,30.10
2022-08-16T16:34:53.616Z,30.10
2022-08-16T16:37:43.828Z,30.10
2022-08-16T16:40:33.386Z,30.10
2022-08-16T16:43:25.917Z,30.10
2022-08-16T16:46:42.250Z,30.10
2022-08-16T16:49:33.893Z,30.10
2022-08-16T16:52:43.570Z,30.10
2022-08-16T16:55:29.694Z,30.00
2022-08-16T16:58:36.728Z,30.00
2022-08-16T17:01:56.633Z,30.00
2022-08-16T17:04:35.562Z,30.00
2022-08-16T17:07:24.363Z,30.00
2022-08-16T17:10:13.259Z,29.90
2022-08-16T17:13:23.000Z,29.90
2022-08-16T17:16:18.389Z,29.90
2022-08-16T17:19:16.878Z,29.90
2022-08-16T17:22:14.329Z,29.90
2022-08-16T17:25:03.202Z,29.80
2022-08-16T17:27:55.786Z,29.80
2022-08-16T17:30:46.137Z,29.80
2022-08-16T17:33:36.866Z,29.80
2022-08-16T17:36:36.658Z,29.80
2022-08-16T17:39:29.156Z,29.80
2022-08-16T17:42:18.047Z,29.70
2022-08-16T17:45:06.277Z,29.80
2022-08-16T17:47:54.590Z,29.70
2022-08-16T17:50:43.404Z,29.70
2022-08-16T17:53:31.838Z,29.70
2022-08-16T17:56:21.231Z,29.60
2022-08-16T17:59:08.848Z,29.60
2022-08-16T18:01:56.322Z,29.60
2022-08-16T18:04:48.469Z,29.60
2022-08-16T18:07:37.432Z,29.60
2022-08-16T18:10:32.778Z,29.50
2022-08-16T18:13:25.044Z,29.50
2022-08-16T18:16:15.906Z,29.50
2022-08-16T18:19:03.225Z,29.50
2022-08-16T18:22:08.104Z,29.40
2022-08-16T18:24:55.941Z,29.40
2022-08-16T18:27:43.348Z,29.40
2022-08-16T18:30:32.099Z,29.40
2022-08-16T18:33:21.100Z,29.30
2022-08-16T18:36:20.700Z,29.30
2022-08-16T18:39:10.359Z,29.30
2022-08-16T18:41:57.600Z,29.20
2022-08-16T18:44:45.987Z,29.20
2022-08-16T18:47:35.051Z,29.20
2022-08-16T18:50:24.025Z,29.20
2022-08-16T18:53:15.809Z,29.10
2022-08-16T18:56:04.565Z,29.10
2022-08-16T18:58:52.129Z,29.00
2022-08-16T19:01:39.825Z,29.00
2022-08-16T19:04:55.098Z,29.00
2022-08-16T19:07:36.441Z,28.90
2022-08-16T19:10:24.380Z,28.90
2022-08-16T19:13:16.257Z,28.90
2022-08-16T19:16:05.838Z,28.80
2022-08-16T19:18:53.406Z,28.80
2022-08-16T19:21:42.277Z,28.80
2022-08-16T19:24:29.994Z,28.70
2022-08-16T19:27:17.294Z,28.70
2022-08-16T19:30:08.990Z,28.70
2022-08-16T19:32:56.821Z,28.70
2022-08-16T19:35:44.458Z,28.60
2022-08-16T19:38:33.824Z,28.60
2022-08-16T19:41:21.489Z,28.50
2022-08-16T19:44:10.001Z,28.50
2022-08-16T19:46:58.014Z,28.50
2022-08-16T19:49:45.982Z,28.50
2022-08-16T19:52:34.128Z,28.40
2022-08-16T19:55:22.861Z,28.40
2022-08-16T19:58:13.990Z,28.40
2022-08-16T20:01:01.792Z,28.30
2022-08-16T20:03:49.202Z,28.30
2022-08-16T20:06:38.391Z,28.30
2022-08-16T20:09:26.583Z,28.30
2022-08-16T20:12:18.419Z,28.20
2022-08-16T20:15:09.354Z,28.20
2022-08-16T20:17:58.290Z,28.10
2022-08-16T20:20:47.921Z,28.10
2022-08-16T20:23:35.587Z,28.10
2022-08-16T20:26:28.599Z,28.00
2022-08-16T20:29:17.896Z,28.00
2022-08-16T20:32:09.255Z,27.90
2022-08-16T20:34:58.055Z,27.90
2022-08-16T20:37:47.725Z,27.90
2022-08-16T20:40:36.168Z,27.80
2022-08-16T20:43:24.358Z,27.80
2022-08-16T20:46:13.699Z,27.80
2022-08-16T20:49:02.250Z,27.70
2022-08-16T20:51:55.817Z,27.70
2022-08-16T20:54:44.232Z,27.70
2022-08-16T20:57:32.434Z,27.60
2022-08-16T21:00:21.773Z,27.50
2022-08-16T21:03:13.966Z,27.50
2022-08-16T21:06:03.308Z,27.50
2022-08-16T21:08:54.146Z,27.50
2022-08-16T21:11:42.238Z,27.40
2022-08-16T21:14:34.144Z,27.40
2022-08-16T21:17:22.162Z,27.30
2022-08-16T21:20:12.687Z,27.30
2022-08-16T21:23:05.377Z,27.30
2022-08-16T21:25:58.881Z,27.20
2022-08-16T21:28:47.535Z,27.20
2022-08-16T21:31:35.737Z,27.20
2022-08-16T21:34:23.629Z,27.20
2022-08-16T21:37:15.707Z,27.10
2022-08-16T21:40:04.304Z,27.10
2022-08-16T21:42:52.329Z,27.00
2022-08-16T21:45:41.278Z,27.00
2022-08-16T21:48:34.464Z,27.00
2022-08-16T21:51:23.510Z,26.90
2022-08-16T21:54:13.088Z,26.90
2022-08-16T21:57:01.126Z,26.90
2022-08-16T21:59:51.246Z,26.80
2022-08-16T22:02:39.167Z,26.80
2022-08-16T22:05:27.656Z,26.70
2022-08-16T22:08:16.901Z,26.70
2022-08-16T22:11:09.239Z,26.60
2022-08-16T22:13:59.427Z,26.60
2022-08-16T22:16:47.390Z,26.60
2022-08-16T22:19:35.534Z,26.60
2022-08-16T22:22:23.553Z,26.50
2022-08-16T22:25:23.125Z,26.50
2022-08-16T22:28:13.625Z,26.40
2022-08-16T22:31:02.360Z,26.40
2022-08-16T22:33:50.184Z,26.40
2022-08-16T22:36:39.004Z,26.40
2022-08-16T22:39:26.885Z,26.40
2022-08-16T22:42:14.669Z,26.30
2022-08-16T22:45:08.587Z,26.30
2022-08-16T22:47:56.975Z,26.30
2022-08-16T22:50:45.721Z,26.20
2022-08-16T22:53:33.952Z,26.20
2022-08-16T22:56:26.462Z,26.20
2022-08-16T22:59:14.875Z,26.20
2022-08-16T23:02:06.747Z,26.10
2022-08-16T23:04:55.116Z,26.10
2022-08-16T23:07:43.093Z,26.10
2022-08-16T23:10:31.300Z,26.00
2022-08-16T23:13:20.792Z,26.00
2022-08-16T23:16:11.261Z,26.00
2022-08-16T23:19:00.752Z,26.00
2022-08-16T23:21:49.522Z,25.90
2022-08-16T23:24:56.130Z,25.90
2022-08-16T23:27:44.944Z,25.90
2022-08-16T23:30:36.786Z,25.90
2022-08-16T23:33:30.127Z,25.80
2022-08-16T23:36:19.122Z,25.80
2022-08-16T23:39:07.317Z,25.80
2022-08-16T23:41:55.688Z,25.80
2022-08-16T23:44:58.991Z,25.80
2022-08-16T23:47:47.449Z,25.70
2022-08-16T23:50:38.755Z,25.70
2022-08-16T23:53:30.228Z,25.70
2022-08-16T23:56:21.498Z,25.60
2022-08-16T23:59:09.567Z,25.60
